METAR Data
IDs: Format: Raw Decoded Include TAF

Data at: 0434 UTC 21 Sep 2018

KLUK 210353Z AUTO 25003KT 9SM CLR 24/23 A3002 RMK AO2 SLP160 T02390228
KLUK 210253Z 25004KT 8SM CLR 23/23 A3001 RMK AO2 SLP158 60000 T02330233 50001
KLUK 210153Z 20003KT 8SM CLR 24/24 A3002 RMK AO2 SLP160 T02390239
KLUK 210053Z 00000KT 10SM CLR 25/24 A3001 RMK AO2 RAB46E53 SLP160 P0000 T02500239
KLUK 202353Z 19003KT 10SM CLR 26/24 A3001 RMK AO2 SLP158 T02610239 10322 20261 55001
KLUK 202253Z 19004KT 10SM CLR 29/24 A3000 RMK AO2 SLP155 T02940239
KLUK 202153Z 19009KT 10SM FEW055 31/23 A3001 RMK AO2 SLP156 T03060228
KLUK 202053Z 20010KT 10SM SCT055 32/23 A3001 RMK AO2 SLP158 T03170228 56015
KLUK 201953Z 18007KT 10SM SCT050 32/24 A3002 RMK AO2 SLP162 T03220239
KLUK 201853Z 21010G15KT 10SM SCT050 SCT060 32/24 A3004 RMK AO2 SLP167 T03220239
KLUK 201753Z 24006KT 10SM FEW047 SCT060 31/23 A3006 RMK AO2 SLP174 T03060233 10317 20200 58013
KLUK 201653Z 20010KT 10SM FEW070 31/24 A3007 RMK AO2 SLP178 T03110239
KLUK 201553Z 20005KT 10SM CLR 29/24 A3009 RMK AO2 SLP183 T02940244 $
KLUK 201453Z 20005KT 10SM CLR 27/24 A3010 RMK AO2 SLP187 T02720239 51007 $
KLUK 201353Z 00000KT 10SM CLR 24/23 A3009 RMK AO2 SLP184 T02440233 $
KLUK 201253Z 00000KT 3SM R21L/6000VP6000FT BCFG BR SCT003 21/21 A3009 RMK AO2 SLP184 T02110211 $
KLUK 201233Z 00000KT 3SM R21L/5500VP6000FT BCFG BR SCT003 21/21 A3008 RMK AO2 T02110211 $
KLUK 201153Z 00000KT 2SM R21L/3500V6000FT BCFG BR BKN002 20/20 A3007 RMK AO2 SLP180 T02000200 10217 20194 53011
KLUK 201118Z 00000KT 1SM R21L/1400V4500FT BCFG BR BKN002 21/21 A3007 RMK AO2 T02060206
KLUK 201053Z 00000KT 1/2SM R21L/1200V1400FT FG VV002 20/20 A3006 RMK AO2 SLP174 T02000200
KLUK 201009Z AUTO 00000KT 1/4SM R21L/1200V3000FT FG VV002 20/20 A3005 RMK AO2 T02000200
KLUK 200957Z AUTO 00000KT 3/4SM R21L/2000VP6000FT BR OVC002 20/20 A3005 RMK AO2 T02000200
KLUK 200953Z AUTO 00000KT 2SM R21L/2000VP6000FT BR OVC002 20/20 A3005 RMK AO2 SLP170 T02000200
KLUK 200951Z AUTO 00000KT 3SM R21L/1600VP6000FT BR OVC002 20/20 A3005 RMK AO2
KLUK 200944Z AUTO 00000KT 1SM R21L/1600VP6000FT BR VV002 20/20 A3005 RMK AO2 VIS 1/4V4 T02000200
KLUK 200929Z AUTO 00000KT 1/4SM R21L/P6000FT FG VV002 21/21 A3005 RMK AO2 T02060206
KLUK 200919Z AUTO 00000KT 1/2SM R21L/3000VP6000FT FG VV003 21/21 A3005 RMK AO2 T02060206
KLUK 200909Z AUTO 00000KT 1SM R21L/P6000FT BR VV004 21/21 A3004 RMK AO2 VIS 1/2V2 T02060206
KLUK 200859Z AUTO 00000KT 3/4SM R21L/P6000FT BR VV005 20/20 A3004 RMK AO2 VIS 1/2V1 3/4 T02000200
KLUK 200855Z AUTO 00000KT 1 1/2SM BR FEW005 21/21 A3004 RMK AO2 VIS 1/2V3 T02060206
KLUK 200853Z AUTO 00000KT 2SM BR CLR 21/21 A3004 RMK AO2 SLP168 T02060206 51008
KLUK 200844Z AUTO 00000KT 2 1/2SM R21L/1400VP6000FT BR FEW006 21/21 A3004 RMK AO2 T02060206
KLUK 200829Z AUTO 00000KT 3SM R21L/1200V6000FT BR CLR 21/21 A3004 RMK AO2 T02060206
KLUK 200808Z AUTO 00000KT 2SM BR CLR 20/20 A3004 RMK AO2 T02000200
KLUK 200753Z AUTO 00000KT 3SM BR CLR 21/21 A3004 RMK AO2 SLP166 T02060206
KLUK 200749Z AUTO 00000KT 2 1/2SM BR CLR 21/21 A3004 RMK AO2
KLUK 200731Z AUTO 00000KT 1 3/4SM R21L/3000VP6000FT BR CLR 21/21 A3003 RMK AO2 VIS 1V4 T02060206
KLUK 200716Z AUTO 00000KT 3SM R21L/1400V4500FT BR CLR 21/21 A3002 RMK AO2 T02110211
KLUK 200707Z AUTO 00000KT 2 1/2SM R21L/1200V4000FT BR CLR 21/21 A3002 RMK AO2 T02110211
KLUK 200653Z AUTO 00000KT 3SM BR CLR 21/21 A3002 RMK AO2 SLP160 T02110211
KLUK 200642Z AUTO 00000KT 2SM R21L/5500VP6000FT BR CLR 21/21 A3001 RMK AO2 T02110211
KLUK 200629Z AUTO 00000KT 3SM BR CLR 21/21 A3001 RMK AO2 T02110211
KLUK 200618Z AUTO 00000KT 2SM BR CLR 21/21 A3001 RMK AO2 T02110211
KLUK 200558Z AUTO 00000KT 3/4SM R21L/P6000FT BR CLR 22/22 A3001 RMK AO2 T02170217
KLUK 200553Z AUTO 00000KT 1SM R21L/P6000FT BR VV004 22/22 A3001 RMK AO2 SLP158 T02170217 10250 20211 58003
KLUK 200551Z AUTO 00000KT 3/4SM R21L/P6000FT BR VV004 21/21 A3001 RMK AO2
KLUK 200544Z AUTO 00000KT 1SM R21L/P6000FT BR VV005 22/22 A3001 RMK AO2 T02170217
KLUK 200529Z AUTO 00000KT 2SM BR FEW004 22/22 A3001 RMK AO2 T02170217
KLUK 200519Z AUTO 00000KT 1 3/4SM BR CLR 22/22 A3002 RMK AO2 T02170217
KLUK 200453Z AUTO 00000KT 3SM BR CLR 22/22 A3002 RMK AO2 SLP161 T02170217 403220183
KLUK 200353Z AUTO 00000KT 4SM BR CLR 22/22 A3002 RMK AO2 SLP161 T02170217
KLUK 200253Z 00000KT 7SM CLR 23/23 A3002 RMK AO2 SLP162 T02280228 51009
KLUK 200153Z 00000KT 8SM CLR 23/23 A3002 RMK AO2 SLP161 T02280228
KLUK 200053Z 00000KT 9SM CLR 23/23 A3000 RMK AO2 SLP156 T02330233
KLUK 192353Z 00000KT 9SM FEW110 25/24 A3000 RMK AO2 SLP154 T02500244 10322 20250 53010
KLUK 192253Z 02003KT 10SM SCT065 29/24 A2997 RMK AO2 SLP145 T02890244
KLUK 192153Z 06005KT 10SM SCT090 30/23 A2996 RMK AO2 SLP142 T03000233
KLUK 192053Z 15003KT 10SM FEW050 SCT110 31/22 A2997 RMK AO2 SLP143 T03060222 56014
KLUK 191953Z 00000KT 10SM SCT050 32/22 A2998 RMK AO2 SLP146 T03170222
KLUK 191853Z 00000KT 10SM FEW050 32/22 A2999 RMK AO2 SLP149 T03170222
KLUK 191753Z 11003KT 10SM FEW070 30/23 A3001 RMK AO2 SLP157 T03000233 10311 20194 58003
KLUK 191653Z 00000KT 10SM SCT110 29/23 A3002 RMK AO2 SLP161 T02940233